Jundiai do Sul, Brazil
Current Conditions -  °F | °C
As of 12:00 AM on Thursday 23 Oct 2014 (Local Time) from SBLO Reporting Station
Clear Clear  
Wind Chill: 66°   Ceiling: Unl
Heat Index: 66°   Visibility: 6mi
Dew Point: 59°   Wind: 16mph
Humidity: 78%   Direction: 120°ESE
Pressure: 30.12"   Gusts: NA
Location:  23.44°S, 50.25°W
Report Text: SBLO 230200Z 12014KT CAVOK 19/15 Q1020
Loading
Personal Weather Stations






























Interactive Weather Map
Tropical Storm Tracking
New forecast layout! Learn more

10-Day Weather Forecast

Advertisements
Track Severe Weather on mobile